< < Back
Terminal Aerodrome Forecast


Current Version              Previous Versions:   1  2  3  4  5  6  7  8  9  

Terminal Aerodrome Forecast

524
FTAK31 PAJN 071100
TAFAHN
TAF
PAHN 071125Z 0712/0812 VRB04KT P6SM SKC
     FM071800 12007KT P6SM SCT120
     FM072200 12010KT P6SM SCT050 BKN100
     FM080400 12008KT P6SM SCT025 BKN050
     FM081000 12006KT P6SM VCSH SCT020 OVC040
      AMD LTD TO CLD VIS AND WIND=



Latest METAR

169
SAUS70 KWBC 071654
MTRAHN
METAR KAHN 071651Z VRB04KT 10SM BKN034 BKN048 30/21 A3017 RMK AO2 SLP209
T03000211


USA.gov is the U.S. government's official web portal to all federal, state and local government web resources and services.